createdAt,value
2022-12-27T00:00:47.834Z,99954.84
2022-12-27T00:03:17.725Z,99947.13
2022-12-27T00:05:48.815Z,99971.94
2022-12-27T00:08:18.590Z,99960.91
2022-12-27T00:10:48.041Z,99956.00
2022-12-27T00:13:17.594Z,99968.00
2022-12-27T00:15:46.945Z,99975.50
2022-12-27T00:18:16.375Z,99964.72
2022-12-27T00:20:45.836Z,99972.03
2022-12-27T00:23:15.314Z,99981.69
2022-12-27T00:25:44.752Z,99996.31
2022-12-27T00:28:14.164Z,100002.16
2022-12-27T00:30:44.071Z,100000.44
2022-12-27T00:33:13.593Z,99997.94
2022-12-27T00:35:43.096Z,99990.09
2022-12-27T00:38:12.563Z,99995.00
2022-12-27T00:40:42.775Z,99983.97
2022-12-27T00:43:12.320Z,99978.66
2022-12-27T00:45:44.563Z,99972.34
2022-12-27T00:48:14.322Z,99977.28
2022-12-27T00:50:45.697Z,99973.50
2022-12-27T00:53:15.423Z,99977.53
2022-12-27T00:55:46.121Z,99978.25
2022-12-27T00:58:15.610Z,99978.16
2022-12-27T01:00:45.158Z,99976.56
2022-12-27T01:03:14.793Z,99964.91
2022-12-27T01:05:44.595Z,99971.13
2022-12-27T01:08:14.132Z,99963.41
2022-12-27T01:10:43.808Z,99953.16
2022-12-27T01:13:13.330Z,99950.69
2022-12-27T01:15:43.440Z,99958.69
2022-12-27T01:18:12.954Z,99945.38
2022-12-27T01:20:42.411Z,99937.03
2022-12-27T01:23:11.940Z,99934.66
2022-12-27T01:25:41.386Z,99933.94
2022-12-27T01:28:11.097Z,99931.88
2022-12-27T01:30:40.630Z,99919.19
2022-12-27T01:33:10.188Z,99930.66
2022-12-27T01:35:39.624Z,99925.56
2022-12-27T01:38:08.978Z,99917.81
2022-12-27T01:40:39.419Z,99913.28
2022-12-27T01:43:18.654Z,99902.38
2022-12-27T01:45:49.166Z,99902.94
2022-12-27T01:48:25.264Z,99914.28
2022-12-27T01:51:03.113Z,99919.66
2022-12-27T01:53:39.264Z,99921.47
2022-12-27T01:56:24.790Z,99921.50
2022-12-27T01:59:00.722Z,99923.13
2022-12-27T02:01:44.543Z,99927.06
2022-12-27T02:04:23.256Z,99928.44
2022-12-27T02:06:53.363Z,99935.75
2022-12-27T02:09:46.363Z,99928.56
2022-12-27T02:12:16.794Z,99929.47
2022-12-27T02:14:49.419Z,99922.66
2022-12-27T02:17:29.454Z,99944.25
2022-12-27T02:20:18.606Z,99942.31
2022-12-27T02:23:18.485Z,99932.69
2022-12-27T02:27:06.723Z,99944.59
2022-12-27T02:29:52.880Z,99954.25
2022-12-27T02:33:13.986Z,99943.44
2022-12-27T02:35:54.739Z,99954.16
2022-12-27T02:38:34.715Z,99951.72
2022-12-27T02:41:27.332Z,99946.63
2022-12-27T02:44:16.742Z,99945.75
2022-12-27T02:47:06.986Z,99956.94
2022-12-27T02:50:01.581Z,99955.06
2022-12-27T02:53:04.098Z,99956.25
2022-12-27T02:56:36.291Z,99952.75
2022-12-27T03:00:12.030Z,99949.34
2022-12-27T03:03:44.437Z,99946.06
2022-12-27T03:07:08.700Z,99936.31
2022-12-27T03:10:37.940Z,99943.09
2022-12-27T03:13:59.075Z,99946.34
2022-12-27T03:16:58.072Z,99940.19
2022-12-27T03:20:04.707Z,99950.41
2022-12-27T03:22:56.040Z,99961.31
2022-12-27T03:25:29.699Z,99963.22
2022-12-27T03:28:45.901Z,99964.75
2022-12-27T03:31:47.152Z,99970.03
2022-12-27T03:34:32.585Z,99977.19
2022-12-27T03:37:28.401Z,99988.09
2022-12-27T03:40:29.194Z,99980.31
2022-12-27T03:43:14.921Z,99977.97
2022-12-27T03:46:25.586Z,99975.03
2022-12-27T03:49:11.755Z,99987.69
2022-12-27T03:51:57.268Z,99985.44
2022-12-27T03:54:41.464Z,99994.69
2022-12-27T03:57:25.796Z,99991.66
2022-12-27T03:59:55.946Z,99992.00
2022-12-27T04:02:25.736Z,99981.22
2022-12-27T04:04:55.452Z,99998.41
2022-12-27T04:07:24.987Z,99992.88
2022-12-27T04:10:13.111Z,99996.66
2022-12-27T04:13:00.854Z,99997.16
2022-12-27T04:15:50.746Z,99995.91
2022-12-27T04:18:38.788Z,100002.84
2022-12-27T04:21:26.915Z,100008.63
2022-12-27T04:24:14.928Z,100002.81
2022-12-27T04:27:03.027Z,100008.44
2022-12-27T04:29:51.087Z,100016.31
2022-12-27T04:32:38.887Z,100018.25
2022-12-27T04:35:08.512Z,100024.28
2022-12-27T04:37:38.019Z,100023.66
2022-12-27T04:40:27.360Z,100031.72
2022-12-27T04:43:15.247Z,100028.28
2022-12-27T04:46:03.307Z,100033.47
2022-12-27T04:48:51.416Z,100033.44
2022-12-27T04:51:39.424Z,100035.25
2022-12-27T04:54:40.693Z,100055.44
2022-12-27T04:57:10.212Z,100053.16
2022-12-27T04:59:58.012Z,100059.66
2022-12-27T05:02:27.638Z,100060.06
2022-12-27T05:04:58.261Z,100061.75
2022-12-27T05:07:46.359Z,100063.47
2022-12-27T05:10:34.536Z,100080.72
2022-12-27T05:13:22.861Z,100077.94
2022-12-27T05:15:52.425Z,100075.00
2022-12-27T05:18:22.495Z,100073.94
2022-12-27T05:20:51.874Z,100084.09
2022-12-27T05:23:39.801Z,100086.16
2022-12-27T05:26:09.260Z,100097.03
2022-12-27T05:28:38.723Z,100096.03
2022-12-27T05:31:07.537Z,100094.31
2022-12-27T05:33:37.016Z,100099.66
2022-12-27T05:36:07.710Z,100103.31
2022-12-27T05:38:37.422Z,100098.38
2022-12-27T05:41:07.966Z,100102.19
2022-12-27T05:43:37.556Z,100104.97
2022-12-27T05:46:12.968Z,100095.72
2022-12-27T05:48:43.364Z,100089.22
2022-12-27T05:51:19.254Z,100092.28
2022-12-27T05:53:49.805Z,100103.13
2022-12-27T05:56:22.510Z,100098.25
2022-12-27T05:58:54.759Z,100105.22
2022-12-27T06:01:23.761Z,100109.63
2022-12-27T06:03:53.209Z,100127.47
2022-12-27T06:06:22.723Z,100126.78
2022-12-27T06:08:52.232Z,100132.22
2022-12-27T06:11:21.770Z,100129.25
2022-12-27T06:13:55.038Z,100134.75
2022-12-27T06:16:24.718Z,100155.72
2022-12-27T06:18:54.364Z,100154.91
2022-12-27T06:21:23.927Z,100158.28
2022-12-27T06:23:53.432Z,100161.31
2022-12-27T06:26:25.977Z,100159.53
2022-12-27T06:28:57.834Z,100163.03
2022-12-27T06:31:28.497Z,100166.31
2022-12-27T06:33:58.417Z,100169.94
2022-12-27T06:36:29.653Z,100165.63
2022-12-27T06:39:00.869Z,100169.25
2022-12-27T06:41:29.525Z,100169.09
2022-12-27T06:43:59.975Z,100157.50
2022-12-27T06:46:27.753Z,100174.44
2022-12-27T06:48:56.500Z,100180.16
2022-12-27T06:51:25.945Z,100187.97
2022-12-27T06:53:54.677Z,100187.88
2022-12-27T06:56:24.409Z,100200.38
2022-12-27T06:58:54.048Z,100196.13
2022-12-27T07:01:27.598Z,100196.84
2022-12-27T07:04:00.291Z,100210.16
2022-12-27T07:06:32.308Z,100216.28
2022-12-27T07:09:02.104Z,100211.56
2022-12-27T07:11:36.133Z,100212.88
2022-12-27T07:14:09.712Z,100218.78
2022-12-27T07:16:38.551Z,100221.00
2022-12-27T07:19:09.668Z,100224.13
2022-12-27T07:21:38.498Z,100230.53
2022-12-27T07:24:08.267Z,100227.84
2022-12-27T07:26:36.864Z,100239.72
2022-12-27T07:29:05.722Z,100235.19
2022-12-27T07:31:34.700Z,100239.84
2022-12-27T07:34:04.729Z,100243.38
2022-12-27T07:36:39.472Z,100247.66
2022-12-27T07:39:09.942Z,100250.28
2022-12-27T07:41:38.751Z,100259.59
2022-12-27T07:44:08.057Z,100265.81
2022-12-27T07:46:37.201Z,100268.19
2022-12-27T07:49:09.953Z,100264.28
2022-12-27T07:51:42.959Z,100275.34
2022-12-27T07:54:12.352Z,100266.75
2022-12-27T07:56:40.961Z,100266.22
2022-12-27T07:59:13.429Z,100271.66
2022-12-27T08:02:00.931Z,100271.44
2022-12-27T08:04:29.903Z,100269.06
2022-12-27T08:07:14.355Z,100266.75
2022-12-27T08:09:45.757Z,100285.34
2022-12-27T08:12:15.212Z,100282.84
2022-12-27T08:14:44.776Z,100282.75
2022-12-27T08:17:24.293Z,100297.53
2022-12-27T08:19:53.264Z,100305.56
2022-12-27T08:22:22.801Z,100306.88
2022-12-27T08:24:51.260Z,100316.84
2022-12-27T08:27:25.603Z,100319.69
2022-12-27T08:29:54.068Z,100328.31
2022-12-27T08:32:21.713Z,100334.50
2022-12-27T08:34:49.394Z,100337.88
2022-12-27T08:37:17.147Z,100340.72
2022-12-27T08:39:48.384Z,100347.97
2022-12-27T08:42:16.047Z,100339.84
2022-12-27T08:44:44.223Z,100355.00
2022-12-27T08:47:11.912Z,100352.47
2022-12-27T08:49:41.462Z,100334.63
2022-12-27T08:52:09.118Z,100338.38
2022-12-27T08:54:36.830Z,100355.91
2022-12-27T08:57:05.517Z,100363.91
2022-12-27T08:59:33.968Z,100355.38
2022-12-27T09:02:02.928Z,100350.13
2022-12-27T09:04:31.470Z,100359.06
2022-12-27T09:06:59.201Z,100365.72
2022-12-27T09:09:27.658Z,100378.94
2022-12-27T09:11:57.242Z,100386.31
2022-12-27T09:14:25.339Z,100383.25
2022-12-27T09:16:53.793Z,100393.63
2022-12-27T09:19:21.424Z,100385.91
2022-12-27T09:21:49.894Z,100389.22
2022-12-27T09:24:17.574Z,100390.53
2022-12-27T09:26:46.036Z,100379.81
2022-12-27T09:29:14.500Z,100380.81
2022-12-27T09:31:42.129Z,100395.47
2022-12-27T09:34:11.988Z,100397.75
2022-12-27T09:36:40.948Z,100403.19
2022-12-27T09:39:10.368Z,100387.78
2022-12-27T09:42:47.722Z,100399.56
2022-12-27T09:45:32.135Z,100411.56
2022-12-27T09:48:10.667Z,100408.34
2022-12-27T09:50:55.760Z,100407.00
2022-12-27T09:53:48.211Z,100411.09
2022-12-27T09:56:54.004Z,100417.38
2022-12-27T09:59:41.618Z,100413.88
2022-12-27T10:02:26.551Z,100421.03
2022-12-27T10:08:25.733Z,100438.47
2022-12-27T10:11:36.173Z,100441.41
2022-12-27T10:14:50.640Z,100443.38
2022-12-27T10:18:01.589Z,100456.84
2022-12-27T10:21:16.801Z,100447.69
2022-12-27T10:24:00.952Z,100441.97
2022-12-27T10:26:28.986Z,100464.44
2022-12-27T10:29:22.852Z,100463.06
2022-12-27T10:31:50.998Z,100465.19
2022-12-27T10:34:27.158Z,100469.59
2022-12-27T10:36:58.031Z,100480.25
2022-12-27T10:39:32.442Z,100479.38
2022-12-27T10:42:42.029Z,100493.38
2022-12-27T10:45:37.128Z,100487.66
2022-12-27T10:48:36.415Z,100486.03
2022-12-27T10:51:15.531Z,100482.44
2022-12-27T10:53:46.118Z,100471.19
2022-12-27T10:56:32.507Z,100470.34
2022-12-27T10:59:20.411Z,100483.28
2022-12-27T11:02:03.082Z,100468.25
2022-12-27T11:04:32.322Z,100470.56
2022-12-27T11:07:00.068Z,100467.06
2022-12-27T11:09:50.265Z,100469.06
2022-12-27T11:12:33.065Z,100467.75
2022-12-27T11:15:11.864Z,100461.47
2022-12-27T11:17:52.284Z,100471.75
2022-12-27T11:20:51.894Z,100480.91
2022-12-27T11:23:22.923Z,100492.63
2022-12-27T11:26:04.671Z,100465.31
2022-12-27T11:28:52.971Z,100485.34
2022-12-27T11:31:36.493Z,100475.56
2022-12-27T11:34:30.389Z,100480.69
2022-12-27T11:37:20.285Z,100459.84
2022-12-27T11:39:55.922Z,100480.59
2022-12-27T11:42:45.738Z,100463.25
2022-12-27T11:45:48.454Z,100484.72
2022-12-27T11:48:41.420Z,100487.59
2022-12-27T11:51:49.022Z,100487.66
2022-12-27T11:55:21.677Z,100491.53
2022-12-27T11:58:46.284Z,100498.97
2022-12-27T12:02:00.703Z,100505.59
2022-12-27T12:04:55.477Z,100497.97
2022-12-27T12:08:15.621Z,100507.09
2022-12-27T12:11:41.319Z,100511.56
2022-12-27T12:14:45.551Z,100506.72
2022-12-27T12:17:52.279Z,100501.75
2022-12-27T12:21:19.259Z,100506.84
2022-12-27T12:24:34.028Z,100520.44
2022-12-27T12:27:53.442Z,100505.72
2022-12-27T12:31:20.432Z,100508.03
2022-12-27T12:34:08.943Z,100521.00
2022-12-27T12:37:16.092Z,100508.50
2022-12-27T12:40:13.695Z,100502.91
2022-12-27T12:43:12.335Z,100499.03
2022-12-27T12:46:37.926Z,100509.03
2022-12-27T12:49:14.491Z,100529.56
2022-12-27T12:52:18.932Z,100552.31
2022-12-27T12:55:22.033Z,100554.22
2022-12-27T12:58:24.685Z,100554.63
2022-12-27T13:01:19.672Z,100552.84
2022-12-27T13:04:27.307Z,100562.00
2022-12-27T13:07:17.085Z,100561.00
2022-12-27T13:10:15.441Z,100568.75
2022-12-27T13:13:17.907Z,100569.94
2022-12-27T13:16:34.793Z,100564.66
2022-12-27T13:20:04.051Z,100582.13
2022-12-27T13:23:03.386Z,100577.50
2022-12-27T13:26:12.545Z,100579.69
2022-12-27T13:29:42.451Z,100579.16
2022-12-27T13:32:37.685Z,100589.09
2022-12-27T13:35:50.780Z,100577.63
2022-12-27T13:38:54.515Z,100582.75
2022-12-27T13:42:01.932Z,100580.44
2022-12-27T13:45:02.119Z,100591.50
2022-12-27T13:47:46.512Z,100607.34
2022-12-27T13:50:57.039Z,100612.28
2022-12-27T13:54:26.523Z,100623.00
2022-12-27T13:57:27.153Z,100628.25
2022-12-27T14:00:22.454Z,100624.97
2022-12-27T14:03:27.432Z,100639.75
2022-12-27T14:06:36.221Z,100634.41
2022-12-27T14:09:59.727Z,100636.34
2022-12-27T14:12:59.434Z,100635.00
2022-12-27T14:15:42.949Z,100634.22
2022-12-27T14:18:47.353Z,100639.56
2022-12-27T14:22:30.337Z,100639.16
2022-12-27T14:25:42.476Z,100647.19
2022-12-27T14:28:19.044Z,100647.19
2022-12-27T14:31:17.129Z,100643.59
2022-12-27T14:34:16.823Z,100652.09
2022-12-27T14:37:18.053Z,100651.41
2022-12-27T14:40:06.552Z,100657.75
2022-12-27T14:43:41.790Z,100669.59
2022-12-27T14:46:57.524Z,100679.84
2022-12-27T14:49:51.954Z,100676.22
2022-12-27T14:53:04.341Z,100686.84
2022-12-27T14:56:15.268Z,100698.50
2022-12-27T14:59:17.948Z,100704.25
2022-12-27T15:02:21.369Z,100709.78
2022-12-27T15:05:36.698Z,100709.00
2022-12-27T15:08:29.676Z,100707.78
2022-12-27T15:11:52.033Z,100703.19
2022-12-27T15:14:54.148Z,100710.44
2022-12-27T15:18:22.992Z,100712.06
2022-12-27T15:21:29.048Z,100701.69
2022-12-27T15:24:43.757Z,100702.78
2022-12-27T15:27:45.999Z,100712.13
2022-12-27T15:30:20.661Z,100725.44
2022-12-27T15:33:18.553Z,100737.41
2022-12-27T15:36:03.601Z,100736.19
2022-12-27T15:38:55.374Z,100733.09
2022-12-27T15:41:50.676Z,100746.75
2022-12-27T15:44:50.699Z,100756.50
2022-12-27T15:47:24.850Z,100758.94
2022-12-27T15:50:27.288Z,100763.28
2022-12-27T15:53:35.191Z,100760.19
2022-12-27T15:56:12.437Z,100762.19
2022-12-27T15:58:42.690Z,100749.16
2022-12-27T16:01:25.678Z,100761.53
2022-12-27T16:03:58.735Z,100756.06
2022-12-27T16:06:34.179Z,100757.97
2022-12-27T16:09:24.397Z,100753.84
2022-12-27T16:12:13.797Z,100734.38
2022-12-27T16:14:44.949Z,100744.94
2022-12-27T16:17:43.551Z,100745.19
2022-12-27T16:20:16.451Z,100747.06
2022-12-27T16:23:02.850Z,100738.16
2022-12-27T16:25:42.908Z,100762.81
2022-12-27T16:28:24.031Z,100760.88
2022-12-27T16:31:00.568Z,100771.53
2022-12-27T16:33:39.261Z,100780.38
2022-12-27T16:36:21.614Z,100790.28
2022-12-27T16:39:11.856Z,100793.84
2022-12-27T16:42:08.391Z,100791.13
2022-12-27T16:45:05.746Z,100801.66
2022-12-27T16:47:54.680Z,100803.34
2022-12-27T16:51:03.892Z,100800.97
2022-12-27T16:54:00.831Z,100809.88
2022-12-27T16:56:36.947Z,100814.34
2022-12-27T17:00:11.400Z,100814.63
2022-12-27T17:02:46.592Z,100804.31
2022-12-27T17:05:16.142Z,100816.03
2022-12-27T17:07:56.126Z,100810.50
2022-12-27T17:10:50.920Z,100811.84
2022-12-27T17:13:42.210Z,100805.72
2022-12-27T17:16:30.451Z,100815.03
2022-12-27T17:19:08.255Z,100811.19
2022-12-27T17:21:40.758Z,100813.84
2022-12-27T17:24:21.541Z,100821.66
2022-12-27T17:27:24.480Z,100813.53
2022-12-27T17:30:10.287Z,100818.94
2022-12-27T17:33:38.100Z,100821.75
2022-12-27T17:36:28.759Z,100829.13
2022-12-27T17:39:44.549Z,100839.06
2022-12-27T17:43:22.782Z,100843.25
2022-12-27T17:46:19.889Z,100838.88
2022-12-27T17:48:51.371Z,100840.63
2022-12-27T17:51:29.586Z,100843.47
2022-12-27T17:54:17.473Z,100857.78
2022-12-27T17:57:18.954Z,100866.56
2022-12-27T17:59:59.396Z,100866.50
2022-12-27T18:02:37.271Z,100867.72
2022-12-27T18:05:14.156Z,100874.63
2022-12-27T18:07:45.053Z,100882.63
2022-12-27T18:10:26.693Z,100881.66
2022-12-27T18:13:02.175Z,100880.59
2022-12-27T18:15:36.863Z,100873.72
2022-12-27T18:18:09.270Z,100876.31
2022-12-27T18:20:41.580Z,100878.13
2022-12-27T18:23:12.026Z,100871.31
2022-12-27T18:25:44.493Z,100881.00
2022-12-27T18:28:34.371Z,100881.00
2022-12-27T18:31:37.063Z,100877.44
2022-12-27T18:34:24.810Z,100873.88
2022-12-27T18:37:03.404Z,100874.84
2022-12-27T18:39:42.454Z,100870.44
2022-12-27T18:42:41.206Z,100870.56
2022-12-27T18:45:33.607Z,100870.59
2022-12-27T18:48:14.221Z,100866.34
2022-12-27T18:50:53.175Z,100869.72
2022-12-27T18:53:37.890Z,100859.97
2022-12-27T18:56:23.646Z,100858.06
2022-12-27T18:59:19.664Z,100859.81
2022-12-27T19:01:50.022Z,100869.47
2022-12-27T19:04:31.274Z,100869.38
2022-12-27T19:07:13.940Z,100873.81
2022-12-27T19:09:52.886Z,100875.50
2022-12-27T19:12:40.443Z,100876.59
2022-12-27T19:15:40.456Z,100882.81
2022-12-27T19:18:39.082Z,100873.94
2022-12-27T19:21:12.374Z,100878.34
2022-12-27T19:23:49.188Z,100880.97
2022-12-27T19:26:20.653Z,100879.19
2022-12-27T19:29:17.726Z,100870.41
2022-12-27T19:32:06.074Z,100867.66
2022-12-27T19:34:48.549Z,100867.75
2022-12-27T19:37:19.358Z,100868.50
2022-12-27T19:39:49.531Z,100864.22
2022-12-27T19:42:31.374Z,100865.13
2022-12-27T19:45:00.993Z,100875.72
2022-12-27T19:47:28.935Z,100881.97
2022-12-27T19:49:58.506Z,100892.56
2022-12-27T19:52:28.698Z,100890.88
2022-12-27T19:55:08.894Z,100898.75
2022-12-27T19:57:41.029Z,100898.78
2022-12-27T20:00:18.912Z,100890.94
2022-12-27T20:02:48.574Z,100888.31
2022-12-27T20:05:18.221Z,100891.75
2022-12-27T20:08:32.821Z,100891.69
2022-12-27T20:11:07.070Z,100895.09
2022-12-27T20:13:36.590Z,100892.53
2022-12-27T20:16:07.006Z,100889.81
2022-12-27T20:18:36.805Z,100898.72
2022-12-27T20:21:06.496Z,100900.53
2022-12-27T20:23:35.181Z,100889.91
2022-12-27T20:26:03.844Z,100881.06
2022-12-27T20:28:32.002Z,100886.44
2022-12-27T20:31:08.574Z,100888.97
2022-12-27T20:33:39.028Z,100882.81
2022-12-27T20:36:09.757Z,100883.72
2022-12-27T20:38:40.213Z,100890.72
2022-12-27T20:41:17.631Z,100899.63
2022-12-27T20:43:47.722Z,100889.84
2022-12-27T20:46:18.903Z,100906.66
2022-12-27T20:48:47.866Z,100892.53
2022-12-27T20:51:27.528Z,100892.69
2022-12-27T20:54:01.850Z,100888.19
2022-12-27T20:56:31.544Z,100883.66
2022-12-27T20:59:01.604Z,100888.97
2022-12-27T21:01:31.118Z,100897.75
2022-12-27T21:04:00.774Z,100892.50
2022-12-27T21:06:30.795Z,100899.53
2022-12-27T21:08:59.571Z,100892.47
2022-12-27T21:11:32.829Z,100900.38
2022-12-27T21:14:05.900Z,100908.34
2022-12-27T21:16:36.469Z,100914.47
2022-12-27T21:19:07.123Z,100918.13
2022-12-27T21:21:38.695Z,100913.69
2022-12-27T21:24:12.262Z,100914.53
2022-12-27T21:26:42.048Z,100894.25
2022-12-27T21:29:12.375Z,100896.03
2022-12-27T21:31:42.615Z,100887.97
2022-12-27T21:34:11.553Z,100891.44
2022-12-27T21:36:39.958Z,100897.63
2022-12-27T21:39:08.954Z,100898.53
2022-12-27T21:41:40.563Z,100901.22
2022-12-27T21:44:11.459Z,100910.97
2022-12-27T21:46:43.819Z,100912.72
2022-12-27T21:49:14.328Z,100924.28
2022-12-27T21:51:45.148Z,100922.47
2022-12-27T21:54:16.417Z,100920.72
2022-12-27T21:56:46.027Z,100919.81
2022-12-27T21:59:14.796Z,100903.81
2022-12-27T22:01:50.123Z,100903.88
2022-12-27T22:04:23.411Z,100905.59
2022-12-27T22:06:52.918Z,100909.13
2022-12-27T22:09:21.622Z,100916.22
2022-12-27T22:11:50.857Z,100925.97
2022-12-27T22:14:21.960Z,100933.72
2022-12-27T22:16:53.790Z,100925.88
2022-12-27T22:19:22.635Z,100924.13
2022-12-27T22:21:52.045Z,100917.84
2022-12-27T22:24:20.754Z,100919.66
2022-12-27T22:26:50.454Z,100923.25
2022-12-27T22:29:18.546Z,100918.75
2022-12-27T22:31:47.332Z,100931.09
2022-12-27T22:34:16.043Z,100921.34
2022-12-27T22:36:44.715Z,100920.34
2022-12-27T22:39:13.435Z,100915.16
2022-12-27T22:41:42.107Z,100914.31
2022-12-27T22:44:16.108Z,100913.44
2022-12-27T22:47:24.561Z,100909.06
2022-12-27T22:49:35.034Z,100901.94
2022-12-27T22:52:03.906Z,100901.94
2022-12-27T22:55:05.928Z,100910.75
2022-12-27T22:57:23.383Z,100912.53
2022-12-27T22:59:52.051Z,100909.00
2022-12-27T23:02:21.554Z,100898.47
2022-12-27T23:04:51.199Z,100902.81
2022-12-27T23:07:21.208Z,100911.66
2022-12-27T23:10:10.690Z,100906.47
2022-12-27T23:12:40.122Z,100906.50
2022-12-27T23:15:10.033Z,100907.44
2022-12-27T23:17:38.694Z,100906.56
2022-12-27T23:20:11.845Z,100895.94
2022-12-27T23:22:41.306Z,100906.59
2022-12-27T23:25:10.192Z,100909.25
2022-12-27T23:27:39.649Z,100897.78
2022-12-27T23:30:09.509Z,100896.94
2022-12-27T23:32:38.284Z,100902.22
2022-12-27T23:35:07.576Z,100904.91
2022-12-27T23:37:36.280Z,100900.41
2022-12-27T23:40:06.113Z,100888.94
2022-12-27T23:42:33.831Z,100882.81
2022-12-27T23:45:01.607Z,100886.38
2022-12-27T23:47:30.338Z,100877.47
2022-12-27T23:49:59.033Z,100881.88
2022-12-27T23:52:27.691Z,100868.66
2022-12-27T23:54:55.506Z,100866.88
2022-12-27T23:57:25.377Z,100869.53
2022-12-27T23:59:55.515Z,100874.88
